Map

Track Data

SID SEASON NUMBER BASIN SUBBASIN NAME ISO_TIME NATURE LAT LON WMO_WIND WMO_PRES WMO_AGENCY TRACK_TYPE DIST2LAND LANDFALL IFLAG USA_AGENCY USA_ATCF_ID USA_LAT USA_LON USA_RECORD USA_STATUS USA_WIND USA_PRES USA_SSHS USA_R34_NE USA_R34_SE USA_R34_SW USA_R34_NW USA_R50_NE USA_R50_SE USA_R50_SW USA_R50_NW USA_R64_NE USA_R64_SE USA_R64_SW USA_R64_NW USA_POCI USA_ROCI USA_RMW USA_EYE TOKYO_LAT TOKYO_LON TOKYO_GRADE TOKYO_WIND TOKYO_PRES TOKYO_R50_DIR TOKYO_R50_LONG TOKYO_R50_SHORT TOKYO_R30_DIR TOKYO_R30_LONG TOKYO_R30_SHORT TOKYO_LAND CMA_LAT CMA_LON CMA_CAT CMA_WIND CMA_PRES HKO_LAT HKO_LON HKO_CAT HKO_WIND HKO_PRES NEWDELHI_LAT NEWDELHI_LON NEWDELHI_GRADE NEWDELHI_WIND NEWDELHI_PRES NEWDELHI_CI NEWDELHI_DP NEWDELHI_POCI REUNION_LAT REUNION_LON REUNION_TYPE REUNION_WIND REUNION_PRES REUNION_TNUM REUNION_CI REUNION_RMW REUNION_R34_NE REUNION_R34_SE REUNION_R34_SW REUNION_R34_NW REUNION_R50_NE REUNION_R50_SE REUNION_R50_SW REUNION_R50_NW REUNION_R64_NE REUNION_R64_SE REUNION_R64_SW REUNION_R64_NW BOM_LAT BOM_LON BOM_TYPE BOM_WIND BOM_PRES BOM_TNUM BOM_CI BOM_RMW BOM_R34_NE BOM_R34_SE BOM_R34_SW BOM_R34_NW BOM_R50_NE BOM_R50_SE BOM_R50_SW BOM_R50_NW BOM_R64_NE BOM_R64_SE BOM_R64_SW BOM_R64_NW BOM_ROCI BOM_POCI BOM_EYE BOM_POS_METHOD BOM_PRES_METHOD NADI_LAT NADI_LON NADI_CAT NADI_WIND NADI_PRES WELLINGTON_LAT WELLINGTON_LON WELLINGTON_WIND WELLINGTON_PRES DS824_LAT DS824_LON DS824_STAGE DS824_WIND DS824_PRES TD9636_LAT TD9636_LON TD9636_STAGE TD9636_WIND TD9636_PRES TD9635_LAT TD9635_LON TD9635_WIND TD9635_PRES TD9635_ROCI NEUMANN_LAT NEUMANN_LON NEUMANN_CLASS NEUMANN_WIND NEUMANN_PRES MLC_LAT MLC_LON MLC_CLASS MLC_WIND MLC_PRES USA_GUST BOM_GUST BOM_GUST_PER REUNION_GUST REUNION_GUST_PER USA_SEAHGT USA_SEARAD_NE USA_SEARAD_SE USA_SEARAD_SW USA_SEARAD_NW STORM_SPEED STORM_DIR
1989252N11260 1989 97 EP MM OCTAVE 1989-09-08 18:00:00 TS 11.2000 -99.8000 25 1010 hurdat_epa main 579 579 O_________O___ hurdat_epa EP181989 11.2000 -99.8000 TD 25 1010 -1 11.2000 -99.8000 1 25 11 268
1989252N11260 1989 97 EP MM OCTAVE 1989-09-08 21:00:00 TS 11.1765 -100.384 main 603 603 P_________P___ EP181989 11.1752 -100.400 TD 25 1009 -1 11.1805 -100.392 1 25 12 270
1989252N11260 1989 97 EP MM OCTAVE 1989-09-09 00:00:00 TS 11.2000 -100.975 25 1009 hurdat_epa main 627 627 O_________O___ hurdat_epa EP181989 11.2000 -101.000 TD 25 1009 -1 11.2000 -101.000 1 25 12 276
1989252N11260 1989 97 EP MM OCTAVE 1989-09-09 03:00:00 TS 11.3070 -101.579 main 638 631 P_________P___ EP181989 11.3124 -101.600 TD 25 1009 -1 11.2910 -101.631 1 26 12 284
1989252N11260 1989 97 EP MM OCTAVE 1989-09-09 06:00:00 TS 11.4893 -102.190 25 1009 hurdat_epa main 641 640 O_________P___ hurdat_epa EP181989 11.5000 -102.200 TD 25 1009 -1 11.4571 -102.261 1 27 13 288
1989252N11260 1989 97 EP MM OCTAVE 1989-09-09 09:00:00 TS 11.7080 -102.820 main 651 638 P_________P___ EP181989 11.7125 -102.823 TD 27 1008 -1 11.6946 -102.861 1 28 13 293
1989252N11260 1989 97 EP MM OCTAVE 1989-09-09 12:00:00 TS 12.0000 -103.400 30 1008 hurdat_epa main 642 630 O_________O___ hurdat_epa EP181989 12.0000 -103.400 TD 30 1008 -1 12.0000 -103.400 1 30 12 303
1989252N11260 1989 97 EP MM OCTAVE 1989-09-09 15:00:00 TS 12.3714 -103.882 main 625 603 P_________P___ EP181989 12.3699 -103.895 TD 30 1007 -1 12.3758 -103.836 1 30 12 313
1989252N11260 1989 97 EP MM OCTAVE 1989-09-09 18:00:00 TS 12.8029 -104.278 30 1007 hurdat_epa main 609 574 O_________P___ hurdat_epa EP181989 12.8000 -104.300 TD 30 1007 -1 12.8116 -104.210 1 30 11 322
1989252N11260 1989 97 EP MM OCTAVE 1989-09-09 21:00:00 TS 13.2596 -104.600 main 567 535 P_________P___ EP181989 13.2573 -104.615 TD 30 1006 -1 13.2666 -104.555 1 30 11 326
1989252N11260 1989 97 EP MM OCTAVE 1989-09-10 00:00:00 TS 13.7000 -104.900 30 1006 hurdat_epa main 535 503 O_________O___ hurdat_epa EP181989 13.7000 -104.900 TD 30 1006 -1 13.7000 -104.900 1 30 10 323
1989252N11260 1989 97 EP MM OCTAVE 1989-09-10 03:00:00 TS 14.0707 -105.237 main 503 490 P_________P___ EP181989 14.0724 -105.228 TD 32 1005 -1 14.0654 -105.265 1 31 10 316
1989252N11260 1989 97 EP MM OCTAVE 1989-09-10 06:00:00 TS 14.4004 -105.610 35 1005 hurdat_epa main 490 477 O_________P___ hurdat_epa EP181989 14.4000 -105.600 TS 35 1005 0 14.4017 -105.641 1 32 10 310
1989252N11260 1989 97 EP MM OCTAVE 1989-09-10 09:00:00 TS 14.7142 -106.021 main 483 477 P_________P___ EP181989 14.7148 -106.013 TS 35 1004 0 14.7121 -106.046 1 33 11 305
1989252N11260 1989 97 EP MM OCTAVE 1989-09-10 12:00:00 TS 15.0000 -106.500 35 1004 hurdat_epa main 488 487 O_________O___ hurdat_epa EP181989 15.0000 -106.500 TS 35 1004 0 15.0000 -106.500 2 35 12 298
1989252N11260 1989 97 EP MM OCTAVE 1989-09-10 15:00:00 TS 15.2642 -107.075 main 500 500 P_________P___ EP181989 15.2576 -107.085 TS 37 1003 0 15.2842 -107.045 2 37 13 294
1989252N11260 1989 97 EP MM OCTAVE 1989-09-10 18:00:00 TS 15.5114 -107.684 40 1002 hurdat_epa main 515 513 O_________P___ hurdat_epa EP181989 15.5000 -107.700 TS 40 1002 0 15.5457 -107.635 2 40 12 294
1989252N11260 1989 97 EP MM OCTAVE 1989-09-10 21:00:00 TS 15.7641 -108.257 main 531 531 P_________P___ EP181989 15.7574 -108.265 TS 42 1001 0 15.7842 -108.232 2 42 12 294
1989252N11260 1989 97 EP MM OCTAVE 1989-09-11 00:00:00 TS 16.0000 -108.800 45 1000 hurdat_epa main 553 553 O_________O___ hurdat_epa EP181989 16.0000 -108.800 TS 45 1000 0 16.0000 -108.800 2 45 11 294
1989252N11260 1989 97 EP MM OCTAVE 1989-09-11 03:00:00 TS 16.2113 -109.319 main 576 576 P_________P___ EP181989 16.2149 -109.323 TS 47 998 0 16.2006 -109.307 2 48 10 292
1989252N11260 1989 97 EP MM OCTAVE 1989-09-11 06:00:00 TS 16.3951 -109.794 50 996 hurdat_epa main 602 602 O_________P___ hurdat_epa EP181989 16.4000 -109.800 TS 50 996 0 16.3802 -109.775 2 52 9 292
1989252N11260 1989 97 EP MM OCTAVE 1989-09-11 09:00:00 TS 16.5542 -110.219 main 623 623 P_________P___ EP181989 16.5574 -110.223 TS 55 994 0 16.5448 -110.207 2 56 8 292
1989252N11260 1989 97 EP MM OCTAVE 1989-09-11 12:00:00 TS 16.7000 -110.600 60 992 hurdat_epa main 652 652 O_________O___ hurdat_epa EP181989 16.7000 -110.600 TS 60 992 0 16.7000 -110.600 2 60 8 292
1989252N11260 1989 97 EP MM OCTAVE 1989-09-11 15:00:00 TS 16.8429 -110.966 main 681 671 P_________P___ EP181989 16.8424 -110.965 TS 65 988 1 16.8442 -110.968 2 65 7 294
1989252N11260 1989 97 EP MM OCTAVE 1989-09-11 18:00:00 TS 17.0000 -111.300 70 985 hurdat_epa main 673 659 O_________O___ hurdat_epa EP181989 17.0000 -111.300 HU 70 985 1 17.0000 -111.300 3 70 7 298
1989252N11260 1989 97 EP MM OCTAVE 1989-09-11 21:00:00 TS 17.1768 -111.621 main 659 646 P_________P___ EP181989 17.1775 -111.623 HU 75 980 1 17.1747 -111.616 3 75 7 305
1989252N11260 1989 97 EP MM OCTAVE 1989-09-12 00:00:00 TS 17.4000 -111.900 80 975 hurdat_epa main 646 621 O_________O___ hurdat_epa EP181989 17.4000 -111.900 HU 80 975 1 17.4000 -111.900 4 80 7 316
1989252N11260 1989 97 EP MM OCTAVE 1989-09-12 03:00:00 TS 17.6691 -112.119 main 621 598 P_________P___ EP181989 17.6624 -112.108 HU 85 970 2 17.6892 -112.151 4 86 7 327
1989252N11260 1989 97 EP MM OCTAVE 1989-09-12 06:00:00 TS 18.0110 -112.319 90 965 hurdat_epa main 598 566 O_________P___ hurdat_epa EP181989 18.0000 -112.300 HU 90 965 2 18.0441 -112.374 4 92 9 331
1989252N11260 1989 97 EP MM OCTAVE 1989-09-12 09:00:00 TS 18.4280 -112.559 main 571 533 P_________P___ EP181989 18.4200 -112.550 HU 97 960 3 18.4520 -112.585 4 98 10 333
1989252N11260 1989 97 EP MM OCTAVE 1989-09-12 12:00:00 TS 18.9000 -112.800 105 955 hurdat_epa main 533 499 O_________O___ hurdat_epa EP181989 18.9000 -112.800 HU 105 955 3 18.9000 -112.800 4 105 11 337
1989252N11260 1989 97 EP MM OCTAVE 1989-09-12 15:00:00 TS 19.3903 -112.999 main 499 471 P_________P___ EP181989 19.3924 -112.993 HU 107 952 3 19.3840 -113.019 4 107 11 339
1989252N11260 1989 97 EP MM OCTAVE 1989-09-12 18:00:00 TS 19.8999 -113.212 110 950 hurdat_epa main 471 448 O_________P___ hurdat_epa EP181989 19.9000 -113.200 HU 110 950 3 19.8995 -113.248 4 110 11 336
1989252N11260 1989 97 EP MM OCTAVE 1989-09-12 21:00:00 TS 20.4094 -113.478 main 457 445 P_________P___ EP181989 20.4074 -113.470 HU 112 949 3 20.4152 -113.503 4 112 11 331
1989252N11260 1989 97 EP MM OCTAVE 1989-09-13 00:00:00 TS 20.9000 -113.800 115 948 hurdat_epa main 451 428 O_________O___ hurdat_epa EP181989 20.9000 -113.800 HU 115 948 4 20.9000 -113.800 4 115 12 326
1989252N11260 1989 97 EP MM OCTAVE 1989-09-13 03:00:00 TS 21.3649 -114.175 main 424 412 P_________P___ EP181989 21.3800 -114.185 HU 112 949 3 21.3272 -114.153 4 112 11 320
1989252N11260 1989 97 EP MM OCTAVE 1989-09-13 06:00:00 TS 21.7794 -114.587 110 950 hurdat_epa main 412 407 O_________P___ hurdat_epa EP181989 21.8000 -114.600 HU 110 950 3 21.7175 -114.548 4 110 11 315
1989252N11260 1989 97 EP MM OCTAVE 1989-09-13 09:00:00 TS 22.1246 -114.996 main 414 406 P_________P___ EP181989 22.1223 -114.985 HU 107 952 3 22.0740 -114.969 4 107 10 310
1989252N11260 1989 97 EP MM OCTAVE 1989-09-13 12:00:00 TS 22.4250 -115.425 105 955 hurdat_epa main 422 422 O_________O___ hurdat_epa EP181989 22.4000 -115.400 HU 105 955 3 22.4000 -115.400 4 105 10 305
1989252N11260 1989 97 EP MM OCTAVE 1989-09-13 15:00:00 TS 22.7220 -115.905 main 443 443 P_________P___ EP181989 22.7077 -115.907 HU 97 961 3 22.7079 -115.839 4 98 10 303
1989252N11260 1989 97 EP MM OCTAVE 1989-09-13 18:00:00 TS 22.9969 -116.370 90 968 hurdat_epa main 471 471 O_________P___ hurdat_epa EP181989 23.0000 -116.400 HU 90 968 2 22.9877 -116.280 4 92 9 304
1989252N11260 1989 97 EP MM OCTAVE 1989-09-13 21:00:00 TS 23.2495 -116.756 main 500 488 P_________P___ EP181989 23.2497 -116.773 HU 85 972 2 23.2486 -116.707 4 86 8 307
1989252N11260 1989 97 EP MM OCTAVE 1989-09-14 00:00:00 TS 23.5000 -117.100 80 977 hurdat_epa main 494 484 O_________O___ hurdat_epa EP181989 23.5000 -117.100 HU 80 977 1 23.5000 -117.100 4 80 8 310
1989252N11260 1989 97 EP MM OCTAVE 1989-09-14 03:00:00 TS 23.7804 -117.447 main 484 480 P_________P___ EP181989 23.8075 -117.465 HU 75 981 1 23.7567 -117.449 4 75 8 312
1989252N11260 1989 97 EP MM OCTAVE 1989-09-14 06:00:00 TS 24.0517 -117.765 70 985 hurdat_epa main 485 483 O_________P___ hurdat_epa EP181989 24.1000 -117.800 HU 70 985 1 24.0070 -117.761 4 70 7 312
1989252N11260 1989 97 EP MM OCTAVE 1989-09-14 09:00:00 TS 24.2796 -118.045 main 483 481 P_________P___ EP181989 24.3074 -118.065 HU 65 987 1 24.2537 -118.042 4 65 7 313
1989252N11260 1989 97 EP MM OCTAVE 1989-09-14 12:00:00 TS 24.5000 -118.300 60 990 hurdat_epa main 485 483 O_________O___ hurdat_epa EP181989 24.5000 -118.300 TS 60 990 0 24.5000 -118.300 2 60 7 314
1989252N11260 1989 97 EP MM OCTAVE 1989-09-14 15:00:00 TS 24.7413 -118.563 main 490 483 P_________P___ EP181989 24.7425 -118.558 TS 57 992 0 24.7377 -118.571 2 56 7 317
1989252N11260 1989 97 EP MM OCTAVE 1989-09-14 18:00:00 TS 24.9944 -118.804 55 995 hurdat_epa main 483 483 O_________P___ hurdat_epa EP181989 25.0000 -118.800 TS 55 995 0 24.9774 -118.818 2 52 7 321
1989252N11260 1989 97 EP MM OCTAVE 1989-09-14 21:00:00 TS 25.2515 -119.024 main 479 479 P_________P___ EP181989 25.2425 -119.023 TS 50 996 0 25.2284 -119.030 2 48 6 326
1989252N11260 1989 97 EP MM OCTAVE 1989-09-15 00:00:00 TS 25.5250 -119.200 45 998 hurdat_epa main 484 476 O_________O___ hurdat_epa EP181989 25.5000 -119.200 TS 45 998 0 25.5000 -119.200 2 45 6 335
1989252N11260 1989 97 EP MM OCTAVE 1989-09-15 03:00:00 TS 25.8213 -119.326 main 476 471 P_________P___ EP181989 25.7850 -119.323 TS 42 1000 0 25.8154 -119.335 2 42 6 343
1989252N11260 1989 97 EP MM OCTAVE 1989-09-15 06:00:00 TS 26.1374 -119.406 40 1002 hurdat_epa main 471 462 O_________P___ hurdat_epa EP181989 26.1000 -119.400 TS 40 1002 0 26.1498 -119.425 2 40 7 349
1989252N11260 1989 97 EP MM OCTAVE 1989-09-15 09:00:00 TS 26.4823 -119.468 main 464 455 P_________P___ EP181989 26.4650 -119.465 TS 37 1003 0 26.4843 -119.478 2 37 7 354
1989252N11260 1989 97 EP MM OCTAVE 1989-09-15 12:00:00 TS 26.8000 -119.500 35 1005 hurdat_epa main 455 450 O_________O___ hurdat_epa EP181989 26.8000 -119.500 TS 35 1005 0 26.8000 -119.500 2 35 6 355
1989252N11260 1989 97 EP MM OCTAVE 1989-09-15 15:00:00 TS 27.0286 -119.517 main 450 447 P_________P___ EP181989 27.0075 -119.515 TS 32 1006 -1 27.0918 -119.524 2 33 4 357
1989252N11260 1989 97 EP MM OCTAVE 1989-09-15 18:00:00 TS 27.2400 -119.504 30 1007 hurdat_epa main 447 443 O_________P___ hurdat_epa EP181989 27.2000 -119.500 TD 30 1007 -1 27.3598 -119.518 2 32 5 5
1989252N11260 1989 97 EP MM OCTAVE 1989-09-15 21:00:00 TS 27.5157 -119.468 main 443 421 P_________P___ EP181989 27.5075 -119.465 TD 30 1007 -1 27.5980 -119.477 2 31 5 10
1989252N11260 1989 97 EP MM OCTAVE 1989-09-16 00:00:00 TS 27.7750 -119.400 30 1008 hurdat_epa main 421 400 O_________O___ hurdat_epa EP181989 27.8000 -119.400 TD 30 1008 -1 27.8000 -119.400 1 30 5 16
1989252N11260 1989 97 EP MM OCTAVE 1989-09-16 03:00:00 TS 27.9645 -119.324 main 400 386 P_________P___ EP181989 27.9800 -119.322 TD 27 1008 -1 27.9755 -119.328 1 28 4 28
1989252N11260 1989 97 EP MM OCTAVE 1989-09-16 06:00:00 TS 28.1036 -119.204 25 1009 hurdat_epa main 386 372 O_________P___ hurdat_epa EP181989 28.1000 -119.200 TD 25 1009 -1 28.1143 -119.216 1 27 4 45
1989252N11260 1989 97 EP MM OCTAVE 1989-09-16 09:00:00 TS 28.2183 -119.039 main 364 341 P_________P___ EP181989 28.2149 -119.037 TD 25 1009 -1 28.2211 -119.045 1 26 4 61
1989252N11260 1989 97 EP MM OCTAVE 1989-09-16 12:00:00 TS 28.3000 -118.800 25 1010 hurdat_epa main 341 310 O_________O___ hurdat_epa EP181989 28.3000 -118.800 TD 25 1010 -1 28.3000 -118.800 1 25 5 74
1989252N11260 1989 97 EP MM OCTAVE 1989-09-16 15:00:00 TS 28.3568 -118.475 main 310 278 P_________P___ EP181989 28.3578 -118.475 TD 22 1011 -1 28.3563 -118.473 1 22 6 81
1989252N11260 1989 97 EP MM OCTAVE 1989-09-16 18:00:00 TS 28.4000 -118.100 20 1012 hurdat_epa main 278 O_________O___ hurdat_epa EP181989 28.4000 -118.100 TD 20 1012 -1 28.4000 -118.100 1 20 7 82

About IBTrACS Database

This database is a web-friendly format of International Best Track Archive for Climate Stewardship (IBTrACS), a global best track data archive curated by NOAA dating back to 1842.

Updated: 2021-10-08